Time;durP1;ratioP1;P1;durP2;ratioP2;P2;SDS_P1;SDS_P2;PMS_P1;PMS_P2;Temp;Humidity;BMP_temperature;BMP_pressure;BME280_temperature;BME280_humidity;BME280_pressure;Samples;Min_cycle;Max_cycle;Signal;HPM_P1;HPM_P2
2023/12/19 00:00:31;;;;;;;104.77;50.23;;;6.30;99.90;;;;;;5031596;28;20104;-72
2023/12/19 00:02:57;;;;;;;94.63;47.17;;;6.20;99.90;;;;;;5012783;28;20049;-67
2023/12/19 00:05:23;;;;;;;108.63;50.90;;;6.20;99.90;;;;;;5030344;28;20500;-68
2023/12/19 00:07:48;;;;;;;104.40;52.50;;;6.20;99.90;;;;;;5031624;28;20305;-68
2023/12/19 00:10:14;;;;;;;110.80;52.30;;;6.20;99.90;;;;;;5030706;28;20045;-71
2023/12/19 00:12:40;;;;;;;99.63;49.53;;;6.20;99.90;;;;;;5034435;28;20033;-68
2023/12/19 00:15:06;;;;;;;98.60;48.22;;;6.20;99.90;;;;;;5036270;28;20272;-71
2023/12/19 00:17:32;;;;;;;106.22;48.80;;;6.20;99.90;;;;;;5029928;28;20049;-69
2023/12/19 00:19:57;;;;;;;98.95;48.90;;;6.20;99.90;;;;;;5027889;28;20038;-70
2023/12/19 00:22:24;;;;;;;109.10;50.47;;;6.20;99.90;;;;;;5031116;28;20079;-71
2023/12/19 00:24:49;;;;;;;97.10;48.13;;;6.20;99.90;;;;;;5032118;28;20078;-67
2023/12/19 00:27:15;;;;;;;82.10;43.53;;;6.20;99.90;;;;;;5030387;28;20484;-68
2023/12/19 00:29:40;;;;;;;94.83;44.37;;;6.20;99.90;;;;;;5028857;28;20033;-70
2023/12/19 00:32:06;;;;;;;86.87;43.20;;;6.20;99.90;;;;;;5029704;28;20025;-67
2023/12/19 00:34:32;;;;;;;84.68;42.90;;;6.20;99.90;;;;;;5029777;28;20036;-68
2023/12/19 00:36:58;;;;;;;84.00;42.87;;;6.20;99.90;;;;;;5028849;28;20068;-67
2023/12/19 00:39:23;;;;;;;79.70;42.13;;;6.20;99.90;;;;;;5030503;28;20072;-68
2023/12/19 00:41:49;;;;;;;78.33;40.47;;;6.30;99.90;;;;;;5029119;28;20045;-67
2023/12/19 00:44:15;;;;;;;73.63;40.07;;;6.30;99.90;;;;;;5029602;28;20065;-68
2023/12/19 00:46:43;;;;;;;82.05;40.33;;;6.30;99.90;;;;;;5029147;28;20041;-68
2023/12/19 00:49:12;;;;;;;81.15;41.50;;;6.30;99.90;;;;;;5029824;28;20037;-67
2023/12/19 00:51:37;;;;;;;78.90;42.17;;;6.30;99.90;;;;;;5029937;28;20044;-67
2023/12/19 00:54:03;;;;;;;78.43;41.45;;;6.40;99.90;;;;;;5029461;28;20485;-67
2023/12/19 00:56:29;;;;;;;69.55;37.45;;;6.30;99.90;;;;;;5028729;28;20047;-67
2023/12/19 00:58:55;;;;;;;68.68;39.75;;;6.30;99.90;;;;;;5029968;28;20033;-67
2023/12/19 01:01:24;;;;;;;77.30;39.97;;;6.30;99.90;;;;;;5029443;28;20045;-69
2023/12/19 01:03:50;;;;;;;72.60;38.22;;;6.30;99.90;;;;;;5029578;28;20045;-67
2023/12/19 01:06:16;;;;;;;69.63;38.08;;;6.30;99.90;;;;;;5028130;28;20041;-71
2023/12/19 01:08:42;;;;;;;70.35;37.88;;;6.30;99.90;;;;;;5029757;28;20103;-67
2023/12/19 01:11:09;;;;;;;71.10;39.45;;;6.30;99.90;;;;;;5029454;28;20150;-67
2023/12/19 01:13:38;;;;;;;72.20;39.17;;;6.30;99.90;;;;;;5027198;28;20034;-70
2023/12/19 01:16:05;;;;;;;71.22;38.58;;;6.30;99.90;;;;;;5029205;28;20037;-68
2023/12/19 01:18:30;;;;;;;67.03;39.38;;;6.30;99.90;;;;;;5028544;28;20076;-67
2023/12/19 01:20:56;;;;;;;75.18;39.25;;;6.30;99.90;;;;;;5029382;28;20516;-67
2023/12/19 01:23:23;;;;;;;73.83;39.83;;;6.30;99.90;;;;;;5029192;28;20041;-69
2023/12/19 01:25:48;;;;;;;66.90;37.28;;;6.30;99.90;;;;;;5027798;28;20293;-67
2023/12/19 01:28:14;;;;;;;75.57;39.50;;;6.40;99.90;;;;;;5028208;28;20518;-69
2023/12/19 01:30:40;;;;;;;68.88;36.67;;;6.40;99.90;;;;;;5028813;28;20496;-70
2023/12/19 01:33:07;;;;;;;73.45;40.17;;;6.40;99.90;;;;;;5028946;28;20408;-70
2023/12/19 01:35:33;;;;;;;63.80;33.60;;;6.30;99.90;;;;;;5025808;28;20037;-67
2023/12/19 01:37:58;;;;;;;65.77;37.57;;;6.40;99.90;;;;;;5026829;28;20523;-71
2023/12/19 01:40:28;;;;;;;72.90;37.43;;;6.40;99.90;;;;;;5027584;28;20048;-70
2023/12/19 01:42:55;;;;;;;63.38;35.03;;;6.40;99.90;;;;;;5028412;28;20076;-67
2023/12/19 01:45:22;;;;;;;63.03;35.22;;;6.40;99.90;;;;;;5028987;28;20656;-67
2023/12/19 01:47:47;;;;;;;67.82;36.03;;;6.40;99.90;;;;;;5028686;28;20501;-67
2023/12/19 01:50:15;;;;;;;65.53;36.10;;;6.40;99.90;;;;;;5027702;28;20048;-71
2023/12/19 01:52:48;;;;;;;69.88;36.92;;;6.40;99.90;;;;;;5027655;28;20131;-67
2023/12/19 01:55:14;;;;;;;65.00;36.03;;;6.40;99.90;;;;;;5028296;28;20443;-67
2023/12/19 01:57:40;;;;;;;71.78;37.63;;;6.40;99.90;;;;;;5028833;28;20056;-67
2023/12/19 02:00:08;;;;;;;61.85;34.85;;;6.40;99.90;;;;;;5029467;28;20480;-67
2023/12/19 02:02:34;;;;;;;66.78;35.58;;;6.40;99.90;;;;;;5026502;28;20042;-70
2023/12/19 02:05:00;;;;;;;70.15;38.25;;;6.40;99.90;;;;;;5029444;28;20087;-69
2023/12/19 02:07:26;;;;;;;64.53;35.92;;;6.40;99.90;;;;;;5032751;28;20424;-68
2023/12/19 02:09:55;;;;;;;60.57;35.47;;;6.40;99.90;;;;;;5032825;28;20068;-68
2023/12/19 02:12:21;;;;;;;64.93;36.55;;;6.40;99.90;;;;;;5033874;28;20275;-67
2023/12/19 02:14:48;;;;;;;64.65;34.72;;;6.40;99.90;;;;;;5031045;28;20037;-67
2023/12/19 02:17:16;;;;;;;60.45;33.67;;;6.40;99.90;;;;;;5032808;28;20037;-71
2023/12/19 02:19:46;;;;;;;55.75;32.60;;;6.40;99.90;;;;;;5032058;28;20045;-67
2023/12/19 02:22:12;;;;;;;57.05;34.05;;;6.40;99.90;;;;;;5031992;28;20044;-68
2023/12/19 02:24:38;;;;;;;64.72;35.05;;;6.50;99.90;;;;;;5030209;28;20554;-69
2023/12/19 02:27:06;;;;;;;57.45;33.35;;;6.40;99.90;;;;;;5032707;28;20374;-69
2023/12/19 02:29:31;;;;;;;66.47;35.42;;;6.40;99.90;;;;;;5032638;28;20424;-69
2023/12/19 02:31:58;;;;;;;61.13;34.45;;;6.40;99.90;;;;;;5032464;28;20030;-69
2023/12/19 02:34:24;;;;;;;65.45;32.22;;;6.40;99.90;;;;;;5031768;28;20079;-70
2023/12/19 02:36:49;;;;;;;61.75;33.97;;;6.40;99.90;;;;;;5030895;28;20456;-69
2023/12/19 02:39:15;;;;;;;68.30;35.10;;;6.40;99.90;;;;;;5030596;28;20108;-69
2023/12/19 02:41:40;;;;;;;59.50;34.77;;;6.40;99.90;;;;;;5032343;28;20041;-69
2023/12/19 02:44:06;;;;;;;56.00;32.00;;;6.40;99.90;;;;;;5032157;28;20041;-70
2023/12/19 02:46:32;;;;;;;70.10;36.50;;;6.40;99.90;;;;;;5030023;28;20045;-72
2023/12/19 02:48:59;;;;;;;60.92;32.30;;;6.40;99.90;;;;;;5030976;28;20307;-72
2023/12/19 02:51:27;;;;;;;;;;;6.40;99.90;;;;;;5032803;28;20087;-69
2023/12/19 02:53:54;;;;;;;54.63;29.83;;;6.40;99.90;;;;;;5030897;28;19921;-72
2023/12/19 02:56:20;;;;;;;55.25;30.88;;;6.40;99.90;;;;;;5031266;28;20037;-69
2023/12/19 02:58:45;;;;;;;57.78;32.40;;;6.40;99.90;;;;;;5033207;28;20515;-73
2023/12/19 03:01:11;;;;;;;59.45;31.73;;;6.40;99.90;;;;;;5037028;28;20121;-70
2023/12/19 03:03:43;;;;;;;53.92;29.60;;;6.40;99.90;;;;;;5031928;28;20416;-70
2023/12/19 03:06:09;;;;;;;46.83;26.70;;;6.40;99.90;;;;;;5031399;28;20045;-73
2023/12/19 03:08:35;;;;;;;53.28;29.60;;;6.50;99.90;;;;;;5030905;28;20405;-73
2023/12/19 03:11:01;;;;;;;48.88;27.45;;;6.40;99.90;;;;;;5031851;28;20043;-70
2023/12/19 03:13:27;;;;;;;53.42;29.15;;;6.50;99.90;;;;;;5031591;28;20058;-70
2023/12/19 03:15:53;;;;;;;47.67;26.77;;;6.50;99.90;;;;;;5029968;28;20278;-73
2023/12/19 03:18:23;;;;;;;39.75;26.05;;;6.50;99.90;;;;;;5031895;28;20112;-72
2023/12/19 03:20:51;;;;;;;37.85;23.70;;;6.50;99.90;;;;;;5031223;28;20111;-72
2023/12/19 03:23:18;;;;;;;37.55;22.95;;;6.50;99.90;;;;;;5030162;28;20107;-71
2023/12/19 03:25:44;;;;;;;;;;;6.40;99.90;;;;;;5031817;28;20064;-71
2023/12/19 03:28:09;;;;;;;38.63;23.27;;;6.50;99.90;;;;;;5030236;28;20299;-69
2023/12/19 03:30:35;;;;;;;37.30;22.63;;;6.50;99.90;;;;;;5031379;28;20041;-70
2023/12/19 03:33:01;;;;;;;33.57;20.70;;;6.40;99.90;;;;;;5029905;28;20052;-72
2023/12/19 03:35:26;;;;;;;31.70;21.15;;;6.50;99.90;;;;;;5030919;28;20041;-70
2023/12/19 03:37:52;;;;;;;37.63;22.17;;;6.50;99.90;;;;;;5030088;28;20488;-70
2023/12/19 03:40:17;;;;;;;38.83;24.10;;;6.50;99.90;;;;;;5031169;28;20298;-70
2023/12/19 03:42:43;;;;;;;37.83;23.70;;;6.50;99.90;;;;;;5029297;28;20156;-70
2023/12/19 03:45:09;;;;;;;39.70;23.00;;;6.50;99.90;;;;;;5028492;28;20471;-71
2023/12/19 03:47:35;;;;;;;37.28;22.77;;;6.50;99.90;;;;;;5030421;28;20280;-70
2023/12/19 03:50:01;;;;;;;40.50;24.73;;;6.50;99.90;;;;;;5030304;28;20038;-70
2023/12/19 03:52:26;;;;;;;41.20;24.63;;;6.50;99.90;;;;;;5029257;28;20037;-67
2023/12/19 03:54:52;;;;;;;41.37;24.53;;;6.50;99.90;;;;;;5030868;28;20041;-67
2023/12/19 03:57:17;;;;;;;38.83;22.23;;;6.60;99.90;;;;;;5028039;28;20104;-68
2023/12/19 03:59:44;;;;;;;38.83;24.07;;;6.50;99.90;;;;;;5031156;28;20132;-72
2023/12/19 04:02:10;;;;;;;36.17;22.13;;;6.60;99.90;;;;;;5030983;28;20045;-69
2023/12/19 04:04:36;;;;;;;36.97;22.67;;;6.60;99.90;;;;;;5029528;28;20052;-70
2023/12/19 04:07:01;;;;;;;34.22;20.63;;;6.60;99.90;;;;;;5029387;28;20404;-68
2023/12/19 04:09:27;;;;;;;34.50;21.47;;;6.60;99.90;;;;;;5031228;28;20080;-67
2023/12/19 04:11:53;;;;;;;32.83;20.30;;;6.60;99.90;;;;;;5012016;28;20179;-73
2023/12/19 04:14:19;;;;;;;;;;;6.60;99.90;;;;;;5030782;28;20042;-67
2023/12/19 04:16:44;;;;;;;31.33;18.58;;;6.60;99.90;;;;;;5046130;28;19917;-67
2023/12/19 04:19:10;;;;;;;26.40;17.67;;;6.60;99.90;;;;;;5030045;28;20033;-69
2023/12/19 04:21:36;;;;;;;27.13;17.38;;;6.60;99.90;;;;;;5030841;28;20053;-68
2023/12/19 04:24:04;;;;;;;31.08;18.83;;;6.60;99.90;;;;;;5031877;28;20041;-68
2023/12/19 04:26:30;;;;;;;30.70;18.02;;;6.60;99.90;;;;;;5028919;28;20045;-70
2023/12/19 04:28:56;;;;;;;26.58;17.50;;;6.60;99.90;;;;;;5029681;28;20076;-67
2023/12/19 04:31:21;;;;;;;28.53;18.77;;;6.60;99.90;;;;;;5030480;28;20514;-70
2023/12/19 04:33:47;;;;;;;30.87;19.60;;;6.60;99.90;;;;;;5028110;28;20056;-68
2023/12/19 04:36:13;;;;;;;33.80;20.70;;;6.60;99.90;;;;;;5030558;28;20077;-67
2023/12/19 04:38:39;;;;;;;32.47;20.27;;;6.60;99.90;;;;;;5029205;28;20134;-69
2023/12/19 04:41:05;;;;;;;32.08;21.23;;;6.60;99.90;;;;;;5028651;28;20048;-68
2023/12/19 04:43:31;;;;;;;36.95;22.02;;;6.60;99.90;;;;;;5030067;28;20046;-67
2023/12/19 04:45:56;;;;;;;36.15;22.23;;;6.60;99.90;;;;;;5029646;28;20041;-68
2023/12/19 04:48:22;;;;;;;40.97;23.63;;;6.60;99.90;;;;;;5027499;28;20044;-69
2023/12/19 04:50:48;;;;;;;38.17;23.37;;;6.60;99.90;;;;;;5028225;28;20037;-70
2023/12/19 04:53:13;;;;;;;39.57;23.93;;;6.60;99.90;;;;;;5029955;28;20045;-67
2023/12/19 04:55:39;;;;;;;34.50;21.83;;;6.60;99.90;;;;;;5029634;28;20064;-68
2023/12/19 04:58:05;;;;;;;40.27;23.23;;;6.60;99.90;;;;;;5029006;28;20041;-67
2023/12/19 05:00:30;;;;;;;45.13;25.50;;;6.70;99.90;;;;;;5030041;28;20052;-71
2023/12/19 05:02:56;;;;;;;39.93;24.03;;;6.60;99.90;;;;;;5028186;28;20153;-67
2023/12/19 05:05:21;;;;;;;47.90;26.17;;;6.70;99.90;;;;;;5028225;28;20304;-67
2023/12/19 05:07:47;;;;;;;43.23;24.17;;;6.70;99.90;;;;;;5028366;28;20034;-67
2023/12/19 05:10:13;;;;;;;44.63;25.33;;;6.70;99.90;;;;;;5029582;28;20053;-69
2023/12/19 05:12:39;;;;;;;41.57;22.20;;;6.70;99.90;;;;;;5028571;28;20037;-67
2023/12/19 05:15:05;;;;;;;37.37;23.13;;;6.70;99.90;;;;;;5029712;28;20308;-70
2023/12/19 05:17:31;;;;;;;36.35;22.67;;;6.70;99.90;;;;;;5029171;28;20779;-70
2023/12/19 05:19:57;;;;;;;40.97;25.00;;;6.70;99.90;;;;;;5029624;28;20049;-68
2023/12/19 05:22:23;;;;;;;39.63;22.13;;;6.70;99.90;;;;;;5028076;28;20048;-68
2023/12/19 05:24:49;;;;;;;34.63;21.87;;;6.70;99.90;;;;;;5027602;28;20297;-68
2023/12/19 05:27:14;;;;;;;38.15;21.48;;;6.80;99.90;;;;;;5029049;28;20037;-71
2023/12/19 05:29:40;;;;;;;33.83;21.53;;;6.70;99.90;;;;;;5029236;28;20046;-68
2023/12/19 05:32:06;;;;;;;35.37;21.40;;;6.70;99.90;;;;;;5028772;28;20472;-69
2023/12/19 05:34:32;;;;;;;34.83;21.13;;;6.80;99.90;;;;;;5029051;28;20928;-68
2023/12/19 05:36:57;;;;;;;40.30;20.43;;;6.80;99.90;;;;;;5028969;28;20032;-69
2023/12/19 05:39:23;;;;;;;34.40;21.13;;;6.80;99.90;;;;;;5028438;28;20276;-69
2023/12/19 05:41:49;;;;;;;30.00;18.70;;;6.80;99.90;;;;;;5026920;28;20495;-67
2023/12/19 05:44:16;;;;;;;27.52;18.48;;;6.80;99.90;;;;;;5028878;28;20041;-68
2023/12/19 05:46:42;;;;;;;27.88;16.95;;;6.80;99.90;;;;;;5029031;28;20041;-68
2023/12/19 05:49:08;;;;;;;24.20;16.58;;;6.80;99.90;;;;;;5035074;28;20030;-67
2023/12/19 05:51:39;;;;;;;26.10;17.05;;;6.80;99.90;;;;;;5030763;28;20036;-68
2023/12/19 05:54:05;;;;;;;29.33;17.33;;;6.80;99.90;;;;;;5027415;28;20117;-67
2023/12/19 05:56:31;;;;;;;22.63;15.15;;;6.80;99.90;;;;;;5028067;28;20053;-70
2023/12/19 05:58:57;;;;;;;23.27;15.75;;;6.80;99.90;;;;;;5028584;28;20033;-72
2023/12/19 06:01:23;;;;;;;22.83;15.38;;;6.80;99.90;;;;;;5027615;28;20064;-67
2023/12/19 06:03:48;;;;;;;23.03;14.43;;;6.80;99.90;;;;;;5028247;28;20034;-68
2023/12/19 06:06:14;;;;;;;23.90;14.67;;;6.80;99.90;;;;;;5029360;28;20374;-67
2023/12/19 06:08:42;;;;;;;23.98;15.07;;;6.80;99.90;;;;;;5029750;28;20087;-73
2023/12/19 06:11:08;;;;;;;23.73;14.65;;;6.80;99.90;;;;;;5027775;28;20068;-70
2023/12/19 06:13:34;;;;;;;20.88;13.88;;;6.80;99.90;;;;;;5028607;28;20500;-71
2023/12/19 06:16:00;;;;;;;21.70;14.57;;;6.80;99.90;;;;;;5026385;28;20041;-71
2023/12/19 06:18:25;;;;;;;19.00;13.20;;;6.80;99.90;;;;;;5029017;28;20327;-67
2023/12/19 06:20:51;;;;;;;19.03;12.80;;;6.80;99.90;;;;;;5027222;28;20045;-68
2023/12/19 06:23:17;;;;;;;22.87;13.67;;;6.80;99.90;;;;;;5028620;28;20426;-68
2023/12/19 06:25:42;;;;;;;17.63;12.23;;;6.80;99.90;;;;;;5028386;28;20678;-70
2023/12/19 06:28:08;;;;;;;16.13;11.33;;;6.80;99.90;;;;;;5027878;28;20452;-68
2023/12/19 06:30:33;;;;;;;17.73;12.70;;;6.80;99.90;;;;;;5029320;28;20543;-71
2023/12/19 06:33:00;;;;;;;17.23;11.13;;;6.80;99.90;;;;;;5028621;28;20040;-70
2023/12/19 06:35:28;;;;;;;19.23;11.13;;;6.80;99.90;;;;;;5031188;28;20336;-68
2023/12/19 06:37:54;;;;;;;16.52;10.68;;;6.70;99.90;;;;;;5028262;28;20042;-71
2023/12/19 06:40:20;;;;;;;;;;;6.80;99.90;;;;;;5027465;28;20120;-70
2023/12/19 06:42:47;;;;;;;15.70;11.23;;;6.80;99.90;;;;;;5028214;28;20048;-73
2023/12/19 06:45:13;;;;;;;17.00;10.88;;;6.80;99.90;;;;;;5027163;28;20064;-67
2023/12/19 06:47:39;;;;;;;15.87;10.27;;;6.80;99.90;;;;;;5025117;28;20034;-70
2023/12/19 06:50:05;;;;;;;16.02;10.60;;;6.80;99.90;;;;;;5024194;28;20030;-69
2023/12/19 06:52:30;;;;;;;15.45;11.15;;;6.80;99.90;;;;;;5028313;28;20029;-68
2023/12/19 06:54:56;;;;;;;18.48;11.75;;;6.80;99.90;;;;;;5026297;28;20142;-70
2023/12/19 06:57:22;;;;;;;18.70;11.97;;;6.90;99.90;;;;;;5027311;28;20517;-71
2023/12/19 06:59:47;;;;;;;18.47;12.73;;;6.90;99.90;;;;;;5028089;28;20323;-68
2023/12/19 07:02:13;;;;;;;15.80;10.83;;;6.90;99.90;;;;;;5027063;28;20138;-73
2023/12/19 07:04:39;;;;;;;17.80;11.00;;;6.90;99.90;;;;;;5027438;28;20399;-68
2023/12/19 07:07:04;;;;;;;14.93;10.20;;;6.90;99.90;;;;;;5030554;28;20044;-70
2023/12/19 07:09:30;;;;;;;15.97;10.07;;;6.90;99.90;;;;;;5030997;28;20041;-67
2023/12/19 07:11:57;;;;;;;15.80;10.80;;;6.90;99.90;;;;;;5030249;28;20913;-68
2023/12/19 07:14:23;;;;;;;12.95;9.07;;;6.90;99.90;;;;;;5030250;28;20100;-71
2023/12/19 07:16:48;;;;;;;15.98;10.10;;;6.90;99.90;;;;;;5030886;28;20118;-73
2023/12/19 07:19:14;;;;;;;15.95;10.35;;;7.00;99.90;;;;;;5029779;28;20103;-69
2023/12/19 07:21:40;;;;;;;14.37;10.73;;;7.00;99.90;;;;;;5030219;28;20049;-69
2023/12/19 07:24:07;;;;;;;15.88;10.25;;;7.00;99.90;;;;;;5024968;28;20041;-69
2023/12/19 07:26:33;;;;;;;14.82;10.80;;;7.00;99.90;;;;;;5031538;28;20079;-71
2023/12/19 07:29:02;;;;;;;14.15;10.05;;;7.00;99.90;;;;;;5031364;28;20041;-69
2023/12/19 07:31:31;;;;;;;15.60;10.32;;;7.00;99.90;;;;;;5030506;28;20069;-67
2023/12/19 07:34:06;;;;;;;12.95;9.32;;;7.00;99.90;;;;;;5011805;28;20076;-67
2023/12/19 07:36:33;;;;;;;14.05;9.68;;;7.00;99.90;;;;;;5030228;28;20045;-70
2023/12/19 07:38:58;;;;;;;;;;;7.00;99.90;;;;;;5032523;28;20088;-67
2023/12/19 07:41:26;;;;;;;12.45;9.13;;;7.00;99.90;;;;;;5031389;28;19960;-69
2023/12/19 07:43:55;;;;;;;13.63;8.80;;;7.00;99.90;;;;;;5030338;28;20053;-70
2023/12/19 07:46:21;;;;;;;12.95;9.05;;;7.00;99.90;;;;;;5028590;28;20045;-67
2023/12/19 07:48:47;;;;;;;12.97;8.73;;;7.00;99.90;;;;;;5028423;28;20039;-70
2023/12/19 07:51:17;;;;;;;12.20;8.47;;;7.00;99.90;;;;;;5031041;28;20041;-70
2023/12/19 07:53:42;;;;;;;11.13;7.70;;;7.10;99.90;;;;;;5028539;28;20041;-68
2023/12/19 07:56:08;;;;;;;9.32;7.45;;;7.10;99.90;;;;;;5028342;28;20312;-67
2023/12/19 07:58:34;;;;;;;13.53;8.87;;;7.10;99.90;;;;;;5031859;28;20048;-67
2023/12/19 08:01:00;;;;;;;10.40;8.20;;;7.10;99.90;;;;;;5029801;28;20048;-68
2023/12/19 08:03:30;;;;;;;10.35;8.13;;;7.10;99.90;;;;;;5025830;28;20049;-67
2023/12/19 08:05:56;;;;;;;11.65;8.27;;;7.10;99.90;;;;;;5023965;28;20397;-70
2023/12/19 08:08:25;;;;;;;12.32;8.85;;;7.10;99.90;;;;;;5023908;28;20034;-68
2023/12/19 08:10:54;;;;;;;10.77;8.40;;;7.20;99.90;;;;;;5025747;28;20034;-69
2023/12/19 08:13:20;;;;;;;10.68;8.55;;;7.20;99.90;;;;;;5025782;28;20041;-67
2023/12/19 08:15:48;;;;;;;11.95;9.10;;;7.20;99.90;;;;;;5020945;28;20095;-72
2023/12/19 08:18:14;;;;;;;12.25;8.82;;;7.20;99.90;;;;;;5022517;28;20053;-70
2023/12/19 08:20:40;;;;;;;14.00;9.80;;;7.20;99.90;;;;;;5029361;28;20045;-70
2023/12/19 08:23:07;;;;;;;;;;;7.20;99.90;;;;;;5030735;28;20095;-70
2023/12/19 08:25:33;;;;;;;14.40;9.88;;;7.30;99.90;;;;;;5030294;28;20459;-68
2023/12/19 08:27:58;;;;;;;11.35;8.02;;;7.30;99.90;;;;;;5030550;28;20104;-70
2023/12/19 08:30:27;;;;;;;13.53;9.30;;;7.30;99.90;;;;;;5021592;28;20134;-68
2023/12/19 08:32:54;;;;;;;12.25;9.20;;;7.30;99.90;;;;;;5022155;28;20288;-71
2023/12/19 08:35:19;;;;;;;13.13;10.00;;;7.40;99.90;;;;;;5024606;28;20049;-68
2023/12/19 08:37:45;;;;;;;11.87;9.33;;;7.30;99.90;;;;;;5028336;28;20049;-70
2023/12/19 08:40:11;;;;;;;12.23;9.25;;;7.40;99.90;;;;;;5029493;28;20512;-69
2023/12/19 08:42:36;;;;;;;14.15;9.57;;;7.40;99.90;;;;;;5029477;28;20052;-67
2023/12/19 08:45:03;;;;;;;14.97;10.50;;;7.40;99.90;;;;;;5018838;28;20042;-68
2023/12/19 08:47:28;;;;;;;13.00;10.88;;;7.40;99.90;;;;;;5019854;28;20397;-69
2023/12/19 08:49:54;;;;;;;13.67;10.40;;;7.50;99.90;;;;;;5024398;28;20034;-69
2023/12/19 08:52:22;;;;;;;15.20;11.27;;;7.50;99.90;;;;;;5028441;28;20175;-68
2023/12/19 08:54:48;;;;;;;16.67;11.05;;;7.50;99.90;;;;;;5042867;28;20042;-68
2023/12/19 08:57:15;;;;;;;16.27;11.65;;;7.50;99.90;;;;;;5025200;28;20427;-69
2023/12/19 08:59:40;;;;;;;15.75;11.70;;;7.50;99.90;;;;;;5027496;28;20048;-70
2023/12/19 09:02:07;;;;;;;18.25;11.88;;;7.60;99.90;;;;;;5024753;28;20037;-69
2023/12/19 09:04:32;;;;;;;16.08;11.45;;;7.60;99.90;;;;;;5028701;28;20519;-68
2023/12/19 09:06:59;;;;;;;17.73;12.35;;;7.60;99.90;;;;;;5028548;28;20037;-70
2023/12/19 09:09:26;;;;;;;20.45;12.52;;;7.60;99.90;;;;;;5029117;28;20042;-75
2023/12/19 09:11:52;;;;;;;21.75;13.65;;;7.60;99.90;;;;;;5025526;28;20038;-69
2023/12/19 09:14:18;;;;;;;21.58;13.23;;;7.60;99.90;;;;;;5028240;28;20125;-67
2023/12/19 09:16:44;;;;;;;17.65;12.80;;;7.70;99.90;;;;;;5028334;28;20045;-67
2023/12/19 09:19:09;;;;;;;20.33;13.97;;;7.70;99.90;;;;;;5023730;28;20048;-68
2023/12/19 09:21:35;;;;;;;17.63;12.33;;;7.70;99.90;;;;;;5027659;28;20288;-68
2023/12/19 09:24:01;;;;;;;24.95;13.93;;;7.70;99.90;;;;;;5029336;28;20390;-69
2023/12/19 09:26:27;;;;;;;22.53;12.83;;;7.70;99.90;;;;;;5028432;28;20076;-68
2023/12/19 09:28:55;;;;;;;;;;;7.80;99.90;;;;;;5030164;28;20334;-71
2023/12/19 09:31:21;;;;;;;;;;;7.80;99.90;;;;;;5044781;28;19921;-70
2023/12/19 09:33:46;;;;;;;20.05;12.70;;;7.80;99.90;;;;;;5040761;28;19923;-70
2023/12/19 09:36:21;;;;;;;16.97;12.47;;;7.80;99.90;;;;;;5027627;28;20041;-69
2023/12/19 09:38:46;;;;;;;18.08;13.05;;;7.80;99.90;;;;;;5011260;28;20280;-69
2023/12/19 09:41:12;;;;;;;20.40;14.13;;;7.80;99.90;;;;;;5024756;28;20431;-69
2023/12/19 09:43:38;;;;;;;21.70;13.80;;;7.80;99.90;;;;;;5027559;28;20795;-69
2023/12/19 09:46:04;;;;;;;19.67;15.30;;;7.90;99.90;;;;;;5025086;28;20046;-70
2023/12/19 09:48:36;;;;;;;22.08;15.35;;;7.90;99.90;;;;;;5028821;28;20069;-69
2023/12/19 09:51:03;;;;;;;23.95;15.63;;;7.90;99.90;;;;;;5026912;28;20034;-69
2023/12/19 09:53:34;;;;;;;19.95;14.77;;;7.90;99.90;;;;;;5027360;28;20515;-68
2023/12/19 09:56:00;;;;;;;18.85;14.70;;;7.90;99.90;;;;;;5027708;28;20500;-69
2023/12/19 09:58:29;;;;;;;20.83;14.77;;;7.90;99.90;;;;;;5011531;28;20140;-69
2023/12/19 10:00:59;;;;;;;21.20;15.02;;;7.90;99.90;;;;;;5028795;28;20154;-68
2023/12/19 10:03:27;;;;;;;20.70;13.82;;;8.00;99.90;;;;;;5021303;28;20038;-70
2023/12/19 10:05:53;;;;;;;22.77;15.18;;;8.00;99.90;;;;;;5007191;28;20038;-70
2023/12/19 10:08:19;;;;;;;21.15;15.18;;;8.00;99.90;;;;;;5022533;28;20389;-70
2023/12/19 10:10:53;;;;;;;18.77;13.52;;;8.00;99.90;;;;;;5038323;28;20045;-69
2023/12/19 10:13:32;;;;;;;21.83;14.05;;;8.00;99.90;;;;;;5020102;28;20042;-70
2023/12/19 10:16:09;;;;;;;21.83;14.55;;;8.10;99.90;;;;;;5028995;28;20049;-69
2023/12/19 10:18:39;;;;;;;22.45;14.95;;;8.10;99.90;;;;;;5028360;28;20056;-70
2023/12/19 10:21:13;;;;;;;23.13;16.00;;;8.00;99.90;;;;;;5011021;28;20038;-69
2023/12/19 10:23:43;;;;;;;18.88;13.48;;;8.10;99.90;;;;;;5027280;28;20049;-69
2023/12/19 10:26:10;;;;;;;19.35;14.85;;;8.10;99.90;;;;;;5020742;28;20060;-69
2023/12/19 10:28:37;;;;;;;21.95;16.70;;;8.10;99.90;;;;;;5023849;28;20125;-69
2023/12/19 10:31:05;;;;;;;22.02;17.30;;;8.10;99.90;;;;;;5029433;28;20043;-69
2023/12/19 10:33:40;;;;;;;21.90;16.30;;;8.10;99.90;;;;;;5031135;28;20087;-69
2023/12/19 10:36:06;;;;;;;21.52;16.27;;;8.10;99.90;;;;;;5025360;28;20049;-69
2023/12/19 10:38:47;;;;;;;23.98;16.73;;;8.20;99.90;;;;;;5028184;28;20120;-69
2023/12/19 10:41:23;;;;;;;22.52;16.25;;;8.20;99.90;;;;;;5026493;28;20045;-69
2023/12/19 10:43:50;;;;;;;23.80;16.08;;;8.20;99.90;;;;;;5011561;28;20046;-70
2023/12/19 10:46:24;;;;;;;24.20;17.17;;;8.20;99.90;;;;;;5031447;28;20424;-69
2023/12/19 10:49:01;;;;;;;26.35;17.02;;;8.30;99.90;;;;;;5029972;28;20301;-69
2023/12/19 10:51:35;;;;;;;24.60;16.65;;;8.20;99.90;;;;;;5028113;28;20378;-69
2023/12/19 10:54:15;;;;;;;22.45;16.60;;;8.20;99.90;;;;;;5012863;28;20043;-69
2023/12/19 10:57:15;;;;;;;21.95;15.25;;;8.30;99.90;;;;;;5028713;28;20428;-69
2023/12/19 11:00:09;;;;;;;19.95;15.25;;;8.30;99.90;;;;;;5009088;28;20065;-69
2023/12/19 11:02:55;;;;;;;23.98;16.35;;;8.30;99.90;;;;;;5011800;28;20051;-69
2023/12/19 11:05:45;;;;;;;20.75;15.00;;;8.30;99.90;;;;;;5042185;28;20516;-69
2023/12/19 11:08:18;;;;;;;24.02;15.32;;;8.30;99.90;;;;;;5029452;28;20441;-69
2023/12/19 11:10:59;;;;;;;19.77;14.27;;;8.30;99.90;;;;;;5029246;28;20069;-69
2023/12/19 11:13:25;;;;;;;20.17;14.88;;;8.30;99.90;;;;;;5037775;28;20040;-70
2023/12/19 11:16:01;;;;;;;;;;;8.30;99.90;;;;;;5031994;28;20452;-70
2023/12/19 11:18:42;;;;;;;17.60;13.80;;;8.30;99.90;;;;;;5025363;28;20014;-70
2023/12/19 11:21:17;;;;;;;21.40;14.75;;;8.30;99.90;;;;;;5024657;28;20080;-69
2023/12/19 11:24:13;;;;;;;23.20;16.35;;;8.30;99.90;;;;;;5031499;28;20081;-70
2023/12/19 11:26:53;;;;;;;18.60;13.95;;;8.40;99.90;;;;;;5030476;28;20232;-69
2023/12/19 11:29:44;;;;;;;20.42;14.32;;;8.40;99.90;;;;;;5027571;28;20080;-69
2023/12/19 11:32:28;;;;;;;19.83;13.13;;;8.40;99.90;;;;;;5013986;28;20041;-69
2023/12/19 11:35:14;;;;;;;17.98;13.30;;;8.40;99.90;;;;;;5041515;28;20507;-69
2023/12/19 11:37:45;;;;;;;16.50;13.80;;;8.40;99.90;;;;;;5028573;28;20045;-69
2023/12/19 11:40:47;;;;;;;18.00;13.25;;;8.40;99.90;;;;;;5013924;28;20132;-69
2023/12/19 11:43:27;;;;;;;18.45;14.35;;;8.40;99.90;;;;;;5015013;28;20058;-69
2023/12/19 11:45:54;;;;;;;21.00;15.23;;;8.40;99.90;;;;;;5020319;28;20385;-70
2023/12/19 11:48:39;;;;;;;21.08;15.85;;;8.40;99.90;;;;;;5031837;28;20087;-70
2023/12/19 11:51:09;;;;;;;22.23;16.35;;;8.40;99.90;;;;;;5031138;28;20041;-69
2023/12/19 11:53:36;;;;;;;22.05;16.45;;;8.40;99.90;;;;;;5031381;28;20046;-69
2023/12/19 11:56:11;;;;;;;21.10;15.73;;;8.40;99.90;;;;;;5045763;28;20053;-69
2023/12/19 11:58:43;;;;;;;19.92;15.70;;;8.40;99.90;;;;;;5029740;28;20049;-69
2023/12/19 12:01:09;;;;;;;26.98;17.05;;;8.40;99.90;;;;;;5023921;28;20038;-69
2023/12/19 12:03:37;;;;;;;24.23;16.58;;;8.40;99.90;;;;;;5017811;28;20061;-70
2023/12/19 12:06:03;;;;;;;20.80;16.08;;;8.40;99.90;;;;;;5019829;28;20099;-69
2023/12/19 12:08:28;;;;;;;24.83;17.33;;;8.40;99.90;;;;;;5028436;28;20052;-69
2023/12/19 12:11:12;;;;;;;20.13;15.80;;;8.40;99.90;;;;;;5027187;28;20046;-69
2023/12/19 12:13:38;;;;;;;20.42;15.60;;;8.40;99.90;;;;;;5029941;28;20304;-69
2023/12/19 12:16:05;;;;;;;22.13;16.50;;;8.40;99.90;;;;;;5029020;28;20160;-69
2023/12/19 12:18:31;;;;;;;22.42;16.73;;;8.40;99.90;;;;;;5025393;28;20427;-69
2023/12/19 12:21:10;;;;;;;24.80;17.10;;;8.40;99.90;;;;;;5026095;28;20132;-70
2023/12/19 12:23:36;;;;;;;25.20;16.02;;;8.40;99.90;;;;;;5027498;28;20042;-70
2023/12/19 12:26:05;;;;;;;20.30;14.63;;;8.40;99.90;;;;;;5024499;28;20578;-69
2023/12/19 12:28:32;;;;;;;19.65;15.45;;;8.50;99.90;;;;;;5022036;28;20046;-69
2023/12/19 12:31:01;;;;;;;19.52;15.90;;;8.50;99.90;;;;;;5026736;28;20506;-70
2023/12/19 12:33:28;;;;;;;22.33;17.17;;;8.50;99.90;;;;;;5028829;28;20064;-70
2023/12/19 12:35:57;;;;;;;18.95;15.55;;;8.50;99.90;;;;;;5026476;28;20048;-70
2023/12/19 12:38:24;;;;;;;23.83;15.95;;;8.50;99.90;;;;;;5030888;28;20041;-70
2023/12/19 12:41:00;;;;;;;22.55;16.65;;;8.50;99.90;;;;;;5029097;28;20053;-70
2023/12/19 12:43:33;;;;;;;19.80;15.68;;;8.50;99.90;;;;;;5013026;28;20488;-70